• Join FlightAware (Why Join?)
  • Login
  • US Flag 
07:13AM EST


 

Airport Tracker/Info


-or-


 

Live Flight TrackerFlight Track Log ✈ AAY846 ✈ 17-Jul-2014 ✈ KPIE - KPIA

Flight Track Log - Related Links

Times and Time Zones

All times are in EDT time to prevent confusion due to time zone crossing. See the AAY846 flight status page for this flight to view local times or setup timezone preferences in your user account.

Time Position Orientation Groundspeed Altitude Reporting Facility
EDT Latitude Longitude Course Direction KTS MPH feet Rate Location/Type
08:25AM 27.9000 -82.6833 180° South 180 207 800  Level Tampa TRACON
08:26AM 27.8500 -82.6833 180° South 189 217 2,300 2,040 Climbing Tampa TRACON
08:27AM 27.8667 -82.7333 291° West 222 255 4,300 2,220 Climbing Tampa TRACON
08:28AM 27.9333 -82.7167 12° North 255 293 6,800 2,100 Climbing Tampa TRACON
08:30AM 28.0861 -82.6994 North 298 343 10,500 1,680 Climbing Miami Center
08:31AM 28.1819 -82.6989 360° North 350 403 11,900 1,620 Climbing Miami Center
08:32AM 28.2825 -82.7392 341° North 378 435 13,900 2,220 Climbing Miami Center
08:33AM 28.3844 -82.7833 339° North 388 447 16,500 2,220 Climbing Miami Center
08:34AM 28.4869 -82.8250 340° North 388 447 18,500 1,560 Climbing Miami Center
08:35AM 28.6236 -82.8856 339° North 396 456 19,900 1,440 Climbing Jacksonville Center
08:36AM 28.7364 -82.9353 339° North 416 479 21,500 1,440 Climbing Jacksonville Center
08:37AM 28.8489 -82.9897 337° Northwest 427 491 22,900 1,380 Climbing Jacksonville Center
08:38AM 28.9681 -83.0444 338° Northwest 444 511 24,300 1,320 Climbing Jacksonville Center
08:39AM 29.0847 -83.0969 339° North 449 517 25,600 1,200 Climbing Jacksonville Center
08:40AM 29.2036 -83.1542 337° Northwest 454 522 26,700 1,200 Climbing Jacksonville Center
08:41AM 29.3244 -83.2094 338° Northwest 459 528 28,100 1,620 Climbing Jacksonville Center
08:42AM 29.4372 -83.2644 337° Northwest 454 522 30,000 1,620 Climbing Jacksonville Center
08:43AM 29.5497 -83.3200 337° Northwest 449 517 31,400 960 Climbing Jacksonville Center
08:44AM 29.6622 -83.3731 338° Northwest 438 504 32,000 240 Climbing Jacksonville Center
08:45AM 29.7644 -83.4189 339° North 438 504 31,900 -60 Descending Jacksonville Center
08:46AM 29.8789 -83.4769 336° Northwest 438 504 31,900  Level Jacksonville Center
08:47AM 29.9936 -83.5281 339° North 438 504 31,900  Level Jacksonville Center
08:48AM 30.1081 -83.5817 338° Northwest 438 504 31,900  Level Jacksonville Center
08:49AM 30.2225 -83.6403 336° Northwest 443 510 31,900  Level Jacksonville Center
08:50AM 30.3369 -83.6939 338° Northwest 443 510 31,900  Level Jacksonville Center
08:51AM 30.4517 -83.7481 338° Northwest 438 504 31,900  Level Jacksonville Center
08:52AM 30.5722 -83.8047 338° Northwest 438 504 32,000  Climbing Jacksonville Center
08:53AM 30.6847 -83.8589 338° Northwest 433 498 32,000  Level Jacksonville Center
08:54AM 30.7989 -83.9156 337° Northwest 438 504 32,000  Level Jacksonville Center
08:55AM 30.9114 -83.9725 337° Northwest 438 504 32,000  Level Jacksonville Center
08:56AM 31.0256 -84.0272 338° Northwest 438 504 32,000  Level Jacksonville Center
08:57AM 31.1358 -84.0819 337° Northwest 438 504 32,000  Level Jacksonville Center
08:59AM 31.4147 -84.2164 338° Northwest 444 511 32,000  Level Atlanta Center
09:00AM 31.5272 -84.2728 337° Northwest 444 511 32,000  Level Atlanta Center
09:01AM 31.6397 -84.3292 337° Northwest 438 504 32,000  Level Atlanta Center
09:02AM 31.7544 -84.3881 336° Northwest 443 510 32,000  Level Atlanta Center
09:03AM 31.8692 -84.4447 337° Northwest 443 510 32,000  Level Atlanta Center
09:04AM 31.9817 -84.5017 337° Northwest 437 503 32,000  Level Atlanta Center
09:05AM 32.0817 -84.5486 338° Northwest 437 503 32,000  Level Atlanta Center
09:06AM 32.1983 -84.6083 337° Northwest 443 510 32,000  Level Atlanta Center
09:07AM 32.3003 -84.6606 337° Northwest 443 510 32,000  Level Atlanta Center
09:08AM 32.4378 -84.7281 337° Northwest 438 504 32,000  Level Atlanta Center
09:09AM 32.5272 -84.7731 337° Northwest 438 504 32,000  Level Atlanta Center
09:10AM 32.6625 -84.8358 339° North 438 504 32,000  Level Atlanta Center
09:11AM 32.7872 -84.9011 336° Northwest 451 519 32,000  Level Atlanta Center
09:12AM 32.8767 -84.9539 334° Northwest 446 513 32,000  Level Atlanta Center
09:13AM 32.9889 -85.0122 336° Northwest 441 507 32,000  Level Atlanta Center
09:14AM 33.1011 -85.0681 337° Northwest 435 501 32,000  Level Atlanta Center
09:15AM 33.2133 -85.1239 337° Northwest 441 507 32,000  Level Atlanta Center
09:16AM 33.3256 -85.1850 336° Northwest 441 507 32,000  Level Atlanta Center
09:17AM 33.4419 -85.2436 337° Northwest 441 507 32,000  Level Atlanta Center
09:18AM 33.5542 -85.3000 337° Northwest 441 507 32,000  Level Atlanta Center
09:19AM 33.6703 -85.3617 336° Northwest 441 507 32,000  Level Atlanta Center
09:20AM 33.7844 -85.4208 337° Northwest 441 507 32,000  Level Atlanta Center
09:21AM 33.9006 -85.4831 336° Northwest 441 507 32,000  Level Atlanta Center
09:22AM 34.0167 -85.5425 337° Northwest 441 507 32,000  Level Atlanta Center
09:23AM 34.1286 -85.6022 336° Northwest 441 507 32,000  Level Atlanta Center
09:24AM 34.2447 -85.6622 337° Northwest 441 507 32,000  Level Atlanta Center
09:25AM 34.3672 -85.7275 336° Northwest 436 502 32,000  Level Atlanta Center
09:26AM 34.4667 -85.7772 338° Northwest 436 502 32,000  Level Atlanta Center
09:27AM 34.5908 -85.8403 337° Northwest 441 507 32,000  Level Atlanta Center
09:28AM 34.6675 -85.8833 335° Northwest 441 507 32,000  Level Memphis Center
09:29AM 34.7867 -85.9475 336° Northwest 440 506 32,000  Level Memphis Center
09:30AM 34.9125 -86.0147 336° Northwest 440 506 32,000  Level Memphis Center
09:31AM 35.0253 -86.0758 336° Northwest 440 506 32,000  Level Memphis Center
09:32AM 35.1367 -86.1372 336° Northwest 440 506 32,000  Level Memphis Center
09:33AM 35.2472 -86.1978 336° Northwest 439 505 32,000  Level Memphis Center
09:34AM 35.3553 -86.2539 337° Northwest 436 502 32,000  Level Memphis Center
09:35AM 35.4844 -86.3269 335° Northwest 436 502 32,000  Level Memphis Center
09:36AM 35.5958 -86.3867 336° Northwest 435 501 32,000  Level Memphis Center
09:37AM 35.7083 -86.4478 336° Northwest 435 501 32,000  Level Memphis Center
09:38AM 35.8194 -86.5108 335° Northwest 435 501 32,000  Level Memphis Center
09:39AM 35.9300 -86.5708 336° Northwest 435 501 32,000  Level Memphis Center
09:41AM 36.0406 -86.6319 336° Northwest 435 501 32,000  Level Memphis Center
09:42AM 36.1508 -86.6931 336° Northwest 433 498 32,000  Level Memphis Center
09:43AM 36.2764 -86.7661 335° Northwest 431 496 32,000  Level Memphis Center
09:44AM 36.3708 -86.8225 334° Northwest 431 496 32,000  Level Memphis Center
09:45AM 36.4919 -86.8919 335° Northwest 432 497 32,000  Level Memphis Center
09:46AM 36.5994 -86.9569 334° Northwest 432 497 32,000  Level Memphis Center
09:47AM 36.7264 -87.0325 335° Northwest 431 496 32,000  Level Memphis Center
09:48AM 36.8350 -87.0981 334° Northwest 431 496 32,000  Level Memphis Center
09:49AM 36.9433 -87.1633 334° Northwest 430 495 32,000  Level Memphis Center
09:50AM 37.0525 -87.2283 335° Northwest 430 495 32,000  Level Memphis Center
09:51AM 37.1614 -87.2936 334° Northwest 430 495 32,000  Level Memphis Center
09:52AM 37.2697 -87.3592 334° Northwest 430 495 32,000  Level Memphis Center
09:53AM 37.3781 -87.4253 334° Northwest 430 495 32,000  Level Memphis Center
09:54AM 37.4689 -87.4808 334° Northwest 430 495 32,000  Level Indianapolis Center
09:55AM 37.5772 -87.5472 334° Northwest 430 495 32,000  Level Indianapolis Center
09:56AM 37.6858 -87.6133 334° Northwest 430 495 32,000  Level Indianapolis Center
09:57AM 37.7917 -87.6772 335° Northwest 429 494 32,000  Level Indianapolis Center
09:58AM 37.9208 -87.7578 334° Northwest 429 494 32,000  Level Indianapolis Center
09:59AM 38.0300 -87.8219 335° Northwest 429 494 32,000 -540 Level Indianapolis Center
10:00AM 38.1397 -87.8875 335° Northwest 429 494 30,900 -1,020 Descending Indianapolis Center
10:01AM 38.2508 -87.9522 335° Northwest 431 496 30,000 -480 Descending Indianapolis Center
10:02AM 38.3614 -88.0189 335° Northwest 433 498 30,000  Level Indianapolis Center
10:03AM 38.4725 -88.0842 335° Northwest 433 498 30,000  Level Indianapolis Center
10:04AM 38.5817 -88.1500 335° Northwest 433 498 30,000  Level Indianapolis Center
10:05AM 38.6931 -88.2172 335° Northwest 434 499 30,000 -420 Level Indianapolis Center
10:06AM 38.8261 -88.2972 335° Northwest 435 501 29,200 -1,140 Descending Indianapolis Center
10:07AM 38.9383 -88.3639 335° Northwest 437 503 27,700 -1,440 Descending Indianapolis Center
10:08AM 39.0511 -88.4325 335° Northwest 441 507 26,200 -1,440 Descending Indianapolis Center
10:09AM 39.1661 -88.5025 335° Northwest 448 516 24,700 -1,500 Descending Indianapolis Center
10:10AM 39.2794 -88.5697 335° Northwest 450 518 23,100 -900 Descending Indianapolis Center
10:11AM 39.3781 -88.6333 334° Northwest 415 478 22,900 -660 Descending Indianapolis Center
10:12AM 39.4783 -88.6942 335° Northwest 398 458 21,800 -1,140 Descending Indianapolis Center
10:13AM 39.5944 -88.7669 334° Northwest 392 451 20,600 -1,320 Descending Indianapolis Center
10:15AM 39.7067 -88.8364 335° Northwest 384 442 18,900 -1,500 Descending Kansas City Center
10:16AM 39.7969 -88.9047 330° Northwest 380 437 17,300 -1,680 Descending Kansas City Center
10:17AM 39.8786 -88.9800 325° Northwest 365 420 15,500 -1,440 Descending Kansas City Center
10:18AM 39.9586 -89.0506 326° Northwest 354 407 14,400 -1,020 Descending Kansas City Center
10:19AM 40.0375 -89.1214 326° Northwest 347 399 13,400 -960 Descending Kansas City Center
10:20AM 40.1144 -89.1908 325° Northwest 342 394 12,500 -1,020 Descending Kansas City Center
10:21AM 40.1911 -89.2622 325° Northwest 341 392 11,600 -840 Descending Chicago Center
10:22AM 40.2669 -89.3306 325° Northwest 337 388 11,000 -600 Descending Chicago Center
10:23AM 40.3469 -89.3894 331° Northwest 330 380 10,400 -900 Descending Chicago Center
10:24AM 40.4217 -89.4317 337° Northwest 309 356 9,200 -1,500 Descending Chicago Center
10:25AM 40.4903 -89.4675 338° Northwest 285 328 7,400 -2,280 Descending Chicago Center
10:26AM 40.5556 -89.5047 337° Northwest 269 310 4,600 -2,580 Descending Chicago Center
10:27AM 40.5992 -89.5856 305° West 239 275 2,100 -1,500 Descending Chicago Center
10:28AM 40.6281 -89.6317 310° West 191 220 1,500 -600 Descending Chicago Center
10:29AM 40.6511 -89.6739 306° West 158 182 900 -480 Descending Chicago Center
10:30AM 40.6733 -89.7128 307° West 152 175 600 -300 Descending Chicago Center
10:32AM 40.6642 -89.6933 143° Southeast  Level Estimated